sensor_id;sensor_type;location;lat;lon;timestamp;temperature;humidity
18426;DHT22;9340;48.756;9.226;2023-06-10T00:01:52;15.40;99.90
18426;DHT22;9340;48.756;9.226;2023-06-10T00:04:20;15.40;99.90
18426;DHT22;9340;48.756;9.226;2023-06-10T00:06:47;15.40;99.90
18426;DHT22;9340;48.756;9.226;2023-06-10T00:09:16;15.40;99.90
18426;DHT22;9340;48.756;9.226;2023-06-10T00:11:44;15.30;99.90
18426;DHT22;9340;48.756;9.226;2023-06-10T00:14:10;15.30;99.90
18426;DHT22;9340;48.756;9.226;2023-06-10T00:16:37;15.20;99.90
18426;DHT22;9340;48.756;9.226;2023-06-10T00:19:04;15.20;99.90
18426;DHT22;9340;48.756;9.226;2023-06-10T00:21:32;15.20;99.90
18426;DHT22;9340;48.756;9.226;2023-06-10T00:24:03;15.10;99.90
18426;DHT22;9340;48.756;9.226;2023-06-10T00:26:32;15.10;99.90
18426;DHT22;9340;48.756;9.226;2023-06-10T00:28:58;15.00;99.90
18426;DHT22;9340;48.756;9.226;2023-06-10T00:31:25;15.00;99.90
18426;DHT22;9340;48.756;9.226;2023-06-10T00:33:52;15.00;99.90
18426;DHT22;9340;48.756;9.226;2023-06-10T00:36:19;15.00;99.90
18426;DHT22;9340;48.756;9.226;2023-06-10T00:38:46;14.90;99.90
18426;DHT22;9340;48.756;9.226;2023-06-10T00:41:13;14.90;99.90
18426;DHT22;9340;48.756;9.226;2023-06-10T00:43:41;14.90;99.90
18426;DHT22;9340;48.756;9.226;2023-06-10T00:46:08;14.90;99.90
18426;DHT22;9340;48.756;9.226;2023-06-10T00:48:34;14.90;99.90
18426;DHT22;9340;48.756;9.226;2023-06-10T00:51:01;14.80;99.90
18426;DHT22;9340;48.756;9.226;2023-06-10T00:53:28;14.80;99.90
18426;DHT22;9340;48.756;9.226;2023-06-10T00:55:55;14.80;99.90
18426;DHT22;9340;48.756;9.226;2023-06-10T00:58:23;14.80;99.90
18426;DHT22;9340;48.756;9.226;2023-06-10T01:00:51;14.80;99.90
18426;DHT22;9340;48.756;9.226;2023-06-10T01:03:18;14.80;99.90
18426;DHT22;9340;48.756;9.226;2023-06-10T01:05:50;14.90;99.90
18426;DHT22;9340;48.756;9.226;2023-06-10T01:08:25;15.00;99.90
18426;DHT22;9340;48.756;9.226;2023-06-10T01:10:59;15.10;99.90
18426;DHT22;9340;48.756;9.226;2023-06-10T01:13:27;15.00;99.90
18426;DHT22;9340;48.756;9.226;2023-06-10T01:15:56;15.00;99.90
18426;DHT22;9340;48.756;9.226;2023-06-10T01:18:23;14.90;99.90
18426;DHT22;9340;48.756;9.226;2023-06-10T01:20:49;14.90;99.90
18426;DHT22;9340;48.756;9.226;2023-06-10T01:23:18;14.80;99.90
18426;DHT22;9340;48.756;9.226;2023-06-10T01:25:56;14.70;99.90
18426;DHT22;9340;48.756;9.226;2023-06-10T01:28:31;14.60;99.90
18426;DHT22;9340;48.756;9.226;2023-06-10T01:31:03;14.40;99.90
18426;DHT22;9340;48.756;9.226;2023-06-10T01:33:36;14.40;99.90
18426;DHT22;9340;48.756;9.226;2023-06-10T01:36:04;14.40;99.90
18426;DHT22;9340;48.756;9.226;2023-06-10T01:38:35;14.30;99.90
18426;DHT22;9340;48.756;9.226;2023-06-10T01:41:09;14.30;99.90
18426;DHT22;9340;48.756;9.226;2023-06-10T01:43:37;14.20;99.90
18426;DHT22;9340;48.756;9.226;2023-06-10T01:46:04;14.20;99.90
18426;DHT22;9340;48.756;9.226;2023-06-10T01:48:31;14.20;99.90
18426;DHT22;9340;48.756;9.226;2023-06-10T01:50:58;14.10;99.90
18426;DHT22;9340;48.756;9.226;2023-06-10T01:53:25;14.10;99.90
18426;DHT22;9340;48.756;9.226;2023-06-10T01:55:53;14.10;99.90
18426;DHT22;9340;48.756;9.226;2023-06-10T01:58:19;14.10;99.90
18426;DHT22;9340;48.756;9.226;2023-06-10T02:00:46;14.10;99.90
18426;DHT22;9340;48.756;9.226;2023-06-10T02:03:13;14.10;99.90
18426;DHT22;9340;48.756;9.226;2023-06-10T02:05:40;14.20;99.90
18426;DHT22;9340;48.756;9.226;2023-06-10T02:08:07;14.10;99.90
18426;DHT22;9340;48.756;9.226;2023-06-10T02:10:33;14.10;99.90
18426;DHT22;9340;48.756;9.226;2023-06-10T02:13:01;14.20;99.90
18426;DHT22;9340;48.756;9.226;2023-06-10T02:15:28;14.10;99.90
18426;DHT22;9340;48.756;9.226;2023-06-10T02:17:55;14.10;99.90
18426;DHT22;9340;48.756;9.226;2023-06-10T02:20:22;14.10;99.90
18426;DHT22;9340;48.756;9.226;2023-06-10T02:22:48;14.10;99.90
18426;DHT22;9340;48.756;9.226;2023-06-10T02:25:15;14.00;99.90
18426;DHT22;9340;48.756;9.226;2023-06-10T02:27:42;14.00;99.90
18426;DHT22;9340;48.756;9.226;2023-06-10T02:30:11;13.90;99.90
18426;DHT22;9340;48.756;9.226;2023-06-10T02:32:39;13.90;99.90
18426;DHT22;9340;48.756;9.226;2023-06-10T02:35:06;13.80;99.90
18426;DHT22;9340;48.756;9.226;2023-06-10T02:37:33;13.70;99.90
18426;DHT22;9340;48.756;9.226;2023-06-10T02:40:00;13.70;99.90
18426;DHT22;9340;48.756;9.226;2023-06-10T02:42:26;13.80;99.90
18426;DHT22;9340;48.756;9.226;2023-06-10T02:44:53;13.70;99.90
18426;DHT22;9340;48.756;9.226;2023-06-10T02:47:21;13.60;99.90
18426;DHT22;9340;48.756;9.226;2023-06-10T02:49:48;13.50;99.90
18426;DHT22;9340;48.756;9.226;2023-06-10T02:52:14;13.50;99.90
18426;DHT22;9340;48.756;9.226;2023-06-10T02:54:41;13.50;99.90
18426;DHT22;9340;48.756;9.226;2023-06-10T02:57:07;13.60;99.90
18426;DHT22;9340;48.756;9.226;2023-06-10T02:59:35;13.60;99.90
18426;DHT22;9340;48.756;9.226;2023-06-10T03:02:02;13.60;99.90
18426;DHT22;9340;48.756;9.226;2023-06-10T03:04:30;13.60;99.90
18426;DHT22;9340;48.756;9.226;2023-06-10T03:06:57;13.60;99.90
18426;DHT22;9340;48.756;9.226;2023-06-10T03:09:25;13.60;99.90
18426;DHT22;9340;48.756;9.226;2023-06-10T03:11:52;13.50;99.90
18426;DHT22;9340;48.756;9.226;2023-06-10T03:14:19;13.50;99.90
18426;DHT22;9340;48.756;9.226;2023-06-10T03:16:45;13.50;99.90
18426;DHT22;9340;48.756;9.226;2023-06-10T03:19:12;13.40;99.90
18426;DHT22;9340;48.756;9.226;2023-06-10T03:21:44;13.50;99.90
18426;DHT22;9340;48.756;9.226;2023-06-10T03:24:11;13.40;99.90
18426;DHT22;9340;48.756;9.226;2023-06-10T03:26:37;13.40;99.90
18426;DHT22;9340;48.756;9.226;2023-06-10T03:29:04;13.40;99.90
18426;DHT22;9340;48.756;9.226;2023-06-10T03:31:31;13.40;99.90
18426;DHT22;9340;48.756;9.226;2023-06-10T03:33:58;13.40;99.90
18426;DHT22;9340;48.756;9.226;2023-06-10T03:36:24;13.40;99.90
18426;DHT22;9340;48.756;9.226;2023-06-10T03:38:55;13.40;99.90
18426;DHT22;9340;48.756;9.226;2023-06-10T03:41:23;13.50;99.90
18426;DHT22;9340;48.756;9.226;2023-06-10T03:43:51;13.50;99.90
18426;DHT22;9340;48.756;9.226;2023-06-10T03:46:17;13.50;99.90
18426;DHT22;9340;48.756;9.226;2023-06-10T03:48:44;13.50;99.90
18426;DHT22;9340;48.756;9.226;2023-06-10T03:51:11;13.60;99.90
18426;DHT22;9340;48.756;9.226;2023-06-10T03:53:37;13.60;99.90
18426;DHT22;9340;48.756;9.226;2023-06-10T03:56:06;13.70;99.90
18426;DHT22;9340;48.756;9.226;2023-06-10T03:58:32;13.70;99.90
18426;DHT22;9340;48.756;9.226;2023-06-10T04:00:59;13.90;99.90
18426;DHT22;9340;48.756;9.226;2023-06-10T04:03:26;13.90;99.90
18426;DHT22;9340;48.756;9.226;2023-06-10T04:05:52;13.90;99.90
18426;DHT22;9340;48.756;9.226;2023-06-10T04:08:19;13.80;99.90
18426;DHT22;9340;48.756;9.226;2023-06-10T04:10:46;13.90;99.90
18426;DHT22;9340;48.756;9.226;2023-06-10T04:13:14;13.90;99.90
18426;DHT22;9340;48.756;9.226;2023-06-10T04:15:41;13.90;99.90
18426;DHT22;9340;48.756;9.226;2023-06-10T04:18:07;13.90;99.90
18426;DHT22;9340;48.756;9.226;2023-06-10T04:20:34;14.00;99.90
18426;DHT22;9340;48.756;9.226;2023-06-10T04:23:01;14.10;99.90
18426;DHT22;9340;48.756;9.226;2023-06-10T04:25:27;14.20;99.90
18426;DHT22;9340;48.756;9.226;2023-06-10T04:27:54;14.30;99.90
18426;DHT22;9340;48.756;9.226;2023-06-10T04:30:22;14.40;99.90
18426;DHT22;9340;48.756;9.226;2023-06-10T04:32:49;14.50;99.90
18426;DHT22;9340;48.756;9.226;2023-06-10T04:35:16;14.70;99.90
18426;DHT22;9340;48.756;9.226;2023-06-10T04:37:43;14.70;99.90
18426;DHT22;9340;48.756;9.226;2023-06-10T04:40:10;14.90;99.90
18426;DHT22;9340;48.756;9.226;2023-06-10T04:42:37;14.90;99.90
18426;DHT22;9340;48.756;9.226;2023-06-10T04:45:04;15.10;99.90
18426;DHT22;9340;48.756;9.226;2023-06-10T04:47:32;15.10;99.90
18426;DHT22;9340;48.756;9.226;2023-06-10T04:49:59;15.30;99.90
18426;DHT22;9340;48.756;9.226;2023-06-10T04:52:26;15.40;99.90
18426;DHT22;9340;48.756;9.226;2023-06-10T04:54:53;15.50;99.90
18426;DHT22;9340;48.756;9.226;2023-06-10T04:57:20;15.60;99.90
18426;DHT22;9340;48.756;9.226;2023-06-10T04:59:47;15.70;99.90
18426;DHT22;9340;48.756;9.226;2023-06-10T05:02:14;15.80;99.90
18426;DHT22;9340;48.756;9.226;2023-06-10T05:04:42;15.90;99.90
18426;DHT22;9340;48.756;9.226;2023-06-10T05:07:08;16.00;99.90
18426;DHT22;9340;48.756;9.226;2023-06-10T05:09:35;16.10;99.90
18426;DHT22;9340;48.756;9.226;2023-06-10T05:12:03;16.20;99.90
18426;DHT22;9340;48.756;9.226;2023-06-10T05:14:29;16.40;99.90
18426;DHT22;9340;48.756;9.226;2023-06-10T05:16:56;16.70;99.90
18426;DHT22;9340;48.756;9.226;2023-06-10T05:19:23;17.60;99.90
18426;DHT22;9340;48.756;9.226;2023-06-10T05:21:52;19.80;99.90
18426;DHT22;9340;48.756;9.226;2023-06-10T05:24:18;22.20;99.90
18426;DHT22;9340;48.756;9.226;2023-06-10T05:26:45;23.90;99.90
18426;DHT22;9340;48.756;9.226;2023-06-10T05:29:14;25.20;99.90
18426;DHT22;9340;48.756;9.226;2023-06-10T05:31:41;26.20;99.90
18426;DHT22;9340;48.756;9.226;2023-06-10T05:34:07;27.00;99.90
18426;DHT22;9340;48.756;9.226;2023-06-10T05:36:34;27.70;99.90
18426;DHT22;9340;48.756;9.226;2023-06-10T05:39:02;28.40;99.90
18426;DHT22;9340;48.756;9.226;2023-06-10T05:41:29;28.80;99.90
18426;DHT22;9340;48.756;9.226;2023-06-10T05:43:56;29.20;99.90
18426;DHT22;9340;48.756;9.226;2023-06-10T05:46:22;29.30;99.90
18426;DHT22;9340;48.756;9.226;2023-06-10T05:48:49;29.90;99.90
18426;DHT22;9340;48.756;9.226;2023-06-10T05:51:16;30.10;99.90
18426;DHT22;9340;48.756;9.226;2023-06-10T05:53:42;30.40;99.90
18426;DHT22;9340;48.756;9.226;2023-06-10T05:56:13;30.50;99.90
18426;DHT22;9340;48.756;9.226;2023-06-10T05:58:40;30.70;99.90
18426;DHT22;9340;48.756;9.226;2023-06-10T06:01:06;30.80;99.90
18426;DHT22;9340;48.756;9.226;2023-06-10T06:03:33;31.10;99.90
18426;DHT22;9340;48.756;9.226;2023-06-10T06:06:00;31.10;99.90
18426;DHT22;9340;48.756;9.226;2023-06-10T06:08:26;31.20;99.90
18426;DHT22;9340;48.756;9.226;2023-06-10T06:10:53;31.50;99.90
18426;DHT22;9340;48.756;9.226;2023-06-10T06:13:21;31.70;99.90
18426;DHT22;9340;48.756;9.226;2023-06-10T06:15:48;32.10;99.90
18426;DHT22;9340;48.756;9.226;2023-06-10T06:18:14;32.10;99.90
18426;DHT22;9340;48.756;9.226;2023-06-10T06:20:41;32.00;99.90
18426;DHT22;9340;48.756;9.226;2023-06-10T06:23:08;31.80;99.90
18426;DHT22;9340;48.756;9.226;2023-06-10T06:25:35;31.80;99.90
18426;DHT22;9340;48.756;9.226;2023-06-10T06:28:04;31.60;99.90
18426;DHT22;9340;48.756;9.226;2023-06-10T06:30:32;31.30;99.90
18426;DHT22;9340;48.756;9.226;2023-06-10T06:32:59;30.60;99.90
18426;DHT22;9340;48.756;9.226;2023-06-10T06:35:25;29.90;99.90
18426;DHT22;9340;48.756;9.226;2023-06-10T06:37:52;29.40;99.90
18426;DHT22;9340;48.756;9.226;2023-06-10T06:40:19;28.70;99.90
18426;DHT22;9340;48.756;9.226;2023-06-10T06:42:45;27.90;99.90
18426;DHT22;9340;48.756;9.226;2023-06-10T06:45:12;26.90;99.90
18426;DHT22;9340;48.756;9.226;2023-06-10T06:47:40;26.00;99.90
18426;DHT22;9340;48.756;9.226;2023-06-10T06:50:07;24.90;99.90
18426;DHT22;9340;48.756;9.226;2023-06-10T06:52:34;24.10;99.90
18426;DHT22;9340;48.756;9.226;2023-06-10T06:55:01;23.50;99.90
18426;DHT22;9340;48.756;9.226;2023-06-10T06:57:28;23.00;99.90
18426;DHT22;9340;48.756;9.226;2023-06-10T06:59:54;22.70;99.90
18426;DHT22;9340;48.756;9.226;2023-06-10T07:02:21;22.50;99.90
18426;DHT22;9340;48.756;9.226;2023-06-10T07:04:49;22.50;99.90
18426;DHT22;9340;48.756;9.226;2023-06-10T07:07:16;22.40;99.90
18426;DHT22;9340;48.756;9.226;2023-06-10T07:09:43;22.40;99.90
18426;DHT22;9340;48.756;9.226;2023-06-10T07:12:10;22.30;99.90
18426;DHT22;9340;48.756;9.226;2023-06-10T07:14:36;22.30;99.90
18426;DHT22;9340;48.756;9.226;2023-06-10T07:17:03;22.40;99.90
18426;DHT22;9340;48.756;9.226;2023-06-10T07:19:30;22.40;99.90
18426;DHT22;9340;48.756;9.226;2023-06-10T07:21:58;22.40;99.90
18426;DHT22;9340;48.756;9.226;2023-06-10T07:24:25;22.50;99.90
18426;DHT22;9340;48.756;9.226;2023-06-10T07:26:51;22.50;99.90
18426;DHT22;9340;48.756;9.226;2023-06-10T07:29:18;22.60;99.90
18426;DHT22;9340;48.756;9.226;2023-06-10T07:31:45;22.70;99.90
18426;DHT22;9340;48.756;9.226;2023-06-10T07:34:11;22.80;99.90
18426;DHT22;9340;48.756;9.226;2023-06-10T07:36:38;22.80;99.90
18426;DHT22;9340;48.756;9.226;2023-06-10T07:39:06;22.80;99.90
18426;DHT22;9340;48.756;9.226;2023-06-10T07:41:33;22.80;99.90
18426;DHT22;9340;48.756;9.226;2023-06-10T07:44:00;22.90;99.90
18426;DHT22;9340;48.756;9.226;2023-06-10T07:46:27;22.90;99.90
18426;DHT22;9340;48.756;9.226;2023-06-10T07:48:54;23.00;99.90
18426;DHT22;9340;48.756;9.226;2023-06-10T07:51:21;23.20;99.90
18426;DHT22;9340;48.756;9.226;2023-06-10T07:53:48;23.20;99.90
18426;DHT22;9340;48.756;9.226;2023-06-10T07:56:16;23.30;99.90
18426;DHT22;9340;48.756;9.226;2023-06-10T07:58:42;23.40;99.90
18426;DHT22;9340;48.756;9.226;2023-06-10T08:01:09;23.40;99.90
18426;DHT22;9340;48.756;9.226;2023-06-10T08:03:36;23.50;99.90
18426;DHT22;9340;48.756;9.226;2023-06-10T08:06:02;23.60;99.90
18426;DHT22;9340;48.756;9.226;2023-06-10T08:08:29;23.60;99.90
18426;DHT22;9340;48.756;9.226;2023-06-10T08:10:56;23.60;99.90
18426;DHT22;9340;48.756;9.226;2023-06-10T08:13:24;23.50;99.90
18426;DHT22;9340;48.756;9.226;2023-06-10T08:15:50;23.40;99.90
18426;DHT22;9340;48.756;9.226;2023-06-10T08:18:19;23.60;99.90
18426;DHT22;9340;48.756;9.226;2023-06-10T08:20:45;23.70;99.90
18426;DHT22;9340;48.756;9.226;2023-06-10T08:23:12;23.70;99.90
18426;DHT22;9340;48.756;9.226;2023-06-10T08:25:40;23.80;99.90
18426;DHT22;9340;48.756;9.226;2023-06-10T08:28:06;23.90;99.90
18426;DHT22;9340;48.756;9.226;2023-06-10T08:30:35;23.90;99.90
18426;DHT22;9340;48.756;9.226;2023-06-10T08:33:01;24.00;99.90
18426;DHT22;9340;48.756;9.226;2023-06-10T08:35:28;24.10;99.90
18426;DHT22;9340;48.756;9.226;2023-06-10T08:37:55;24.20;99.90
18426;DHT22;9340;48.756;9.226;2023-06-10T08:40:22;24.30;99.90
18426;DHT22;9340;48.756;9.226;2023-06-10T08:42:54;24.30;99.90
18426;DHT22;9340;48.756;9.226;2023-06-10T08:45:24;24.40;99.90
18426;DHT22;9340;48.756;9.226;2023-06-10T08:47:54;24.60;99.90
18426;DHT22;9340;48.756;9.226;2023-06-10T08:50:23;24.60;99.90
18426;DHT22;9340;48.756;9.226;2023-06-10T08:52:54;24.60;99.90
18426;DHT22;9340;48.756;9.226;2023-06-10T08:55:26;24.60;99.90
18426;DHT22;9340;48.756;9.226;2023-06-10T08:57:53;24.70;99.90
18426;DHT22;9340;48.756;9.226;2023-06-10T09:00:21;24.80;99.90
18426;DHT22;9340;48.756;9.226;2023-06-10T09:02:48;24.90;99.90
18426;DHT22;9340;48.756;9.226;2023-06-10T09:05:17;24.90;99.90
18426;DHT22;9340;48.756;9.226;2023-06-10T09:07:46;25.00;99.90
18426;DHT22;9340;48.756;9.226;2023-06-10T09:10:14;25.10;99.90
18426;DHT22;9340;48.756;9.226;2023-06-10T09:12:41;25.20;99.90
18426;DHT22;9340;48.756;9.226;2023-06-10T09:15:08;25.30;99.90
18426;DHT22;9340;48.756;9.226;2023-06-10T09:17:37;25.50;99.90
18426;DHT22;9340;48.756;9.226;2023-06-10T09:20:06;25.40;99.90
18426;DHT22;9340;48.756;9.226;2023-06-10T09:22:35;25.20;99.90
18426;DHT22;9340;48.756;9.226;2023-06-10T09:25:03;25.30;99.90
18426;DHT22;9340;48.756;9.226;2023-06-10T09:27:31;25.30;99.90
18426;DHT22;9340;48.756;9.226;2023-06-10T09:29:58;25.30;99.90
18426;DHT22;9340;48.756;9.226;2023-06-10T09:32:25;25.00;99.90
18426;DHT22;9340;48.756;9.226;2023-06-10T09:34:53;25.10;99.90
18426;DHT22;9340;48.756;9.226;2023-06-10T09:37:23;25.20;99.90
18426;DHT22;9340;48.756;9.226;2023-06-10T09:40:07;25.50;99.90
18426;DHT22;9340;48.756;9.226;2023-06-10T09:42:37;25.80;99.90
18426;DHT22;9340;48.756;9.226;2023-06-10T09:45:06;26.20;99.90
18426;DHT22;9340;48.756;9.226;2023-06-10T09:47:33;26.40;99.90
18426;DHT22;9340;48.756;9.226;2023-06-10T09:49:59;26.50;99.90
18426;DHT22;9340;48.756;9.226;2023-06-10T09:52:28;26.60;99.90
18426;DHT22;9340;48.756;9.226;2023-06-10T09:54:59;26.60;99.90
18426;DHT22;9340;48.756;9.226;2023-06-10T09:57:31;26.90;99.90
18426;DHT22;9340;48.756;9.226;2023-06-10T09:59:58;26.90;99.90
18426;DHT22;9340;48.756;9.226;2023-06-10T10:02:25;26.90;99.90
18426;DHT22;9340;48.756;9.226;2023-06-10T10:04:51;27.10;99.90
18426;DHT22;9340;48.756;9.226;2023-06-10T10:07:18;27.30;99.90
18426;DHT22;9340;48.756;9.226;2023-06-10T10:09:46;27.50;99.90
18426;DHT22;9340;48.756;9.226;2023-06-10T10:12:15;27.70;99.90
18426;DHT22;9340;48.756;9.226;2023-06-10T10:14:46;27.70;99.90
18426;DHT22;9340;48.756;9.226;2023-06-10T10:17:15;27.70;99.90
18426;DHT22;9340;48.756;9.226;2023-06-10T10:19:46;27.80;99.90
18426;DHT22;9340;48.756;9.226;2023-06-10T10:22:17;27.90;99.90
18426;DHT22;9340;48.756;9.226;2023-06-10T10:24:49;28.10;99.90
18426;DHT22;9340;48.756;9.226;2023-06-10T10:27:18;28.20;99.90
18426;DHT22;9340;48.756;9.226;2023-06-10T10:29:48;28.50;99.90
18426;DHT22;9340;48.756;9.226;2023-06-10T10:32:18;28.40;99.90
18426;DHT22;9340;48.756;9.226;2023-06-10T10:34:50;28.20;99.90
18426;DHT22;9340;48.756;9.226;2023-06-10T10:37:20;28.00;99.90
18426;DHT22;9340;48.756;9.226;2023-06-10T10:39:47;27.90;99.90
18426;DHT22;9340;48.756;9.226;2023-06-10T10:42:14;28.20;99.90
18426;DHT22;9340;48.756;9.226;2023-06-10T10:44:42;28.40;99.90
18426;DHT22;9340;48.756;9.226;2023-06-10T10:47:11;28.70;99.90
18426;DHT22;9340;48.756;9.226;2023-06-10T10:49:39;28.80;99.90
18426;DHT22;9340;48.756;9.226;2023-06-10T10:52:11;28.80;99.90
18426;DHT22;9340;48.756;9.226;2023-06-10T10:54:43;28.80;99.90
18426;DHT22;9340;48.756;9.226;2023-06-10T10:57:11;28.60;99.90
18426;DHT22;9340;48.756;9.226;2023-06-10T10:59:59;28.60;99.90
18426;DHT22;9340;48.756;9.226;2023-06-10T11:02:36;28.50;99.90
18426;DHT22;9340;48.756;9.226;2023-06-10T11:05:06;28.80;99.90
18426;DHT22;9340;48.756;9.226;2023-06-10T11:07:34;29.20;99.90
18426;DHT22;9340;48.756;9.226;2023-06-10T11:10:06;29.50;99.90
18426;DHT22;9340;48.756;9.226;2023-06-10T11:12:49;29.70;99.90
18426;DHT22;9340;48.756;9.226;2023-06-10T11:15:22;29.40;99.90
18426;DHT22;9340;48.756;9.226;2023-06-10T11:18:10;29.20;99.90
18426;DHT22;9340;48.756;9.226;2023-06-10T11:20:58;29.10;99.90
18426;DHT22;9340;48.756;9.226;2023-06-10T11:23:39;29.40;99.90
18426;DHT22;9340;48.756;9.226;2023-06-10T11:26:16;29.40;99.90
18426;DHT22;9340;48.756;9.226;2023-06-10T11:29:02;29.20;99.90
18426;DHT22;9340;48.756;9.226;2023-06-10T11:31:30;28.60;99.90
18426;DHT22;9340;48.756;9.226;2023-06-10T11:34:00;28.10;99.90
18426;DHT22;9340;48.756;9.226;2023-06-10T11:36:28;27.90;99.90
18426;DHT22;9340;48.756;9.226;2023-06-10T11:38:57;27.70;99.90
18426;DHT22;9340;48.756;9.226;2023-06-10T11:41:24;27.70;99.90
18426;DHT22;9340;48.756;9.226;2023-06-10T11:43:53;27.80;99.90
18426;DHT22;9340;48.756;9.226;2023-06-10T11:46:21;28.00;99.90
18426;DHT22;9340;48.756;9.226;2023-06-10T11:48:52;28.00;99.90
18426;DHT22;9340;48.756;9.226;2023-06-10T11:51:20;28.10;99.90
18426;DHT22;9340;48.756;9.226;2023-06-10T11:53:47;28.10;99.90
18426;DHT22;9340;48.756;9.226;2023-06-10T11:56:19;28.20;99.90
18426;DHT22;9340;48.756;9.226;2023-06-10T11:58:52;28.30;99.90
18426;DHT22;9340;48.756;9.226;2023-06-10T12:01:20;28.50;99.90
18426;DHT22;9340;48.756;9.226;2023-06-10T12:03:47;28.70;99.90
18426;DHT22;9340;48.756;9.226;2023-06-10T12:06:14;29.00;99.90
18426;DHT22;9340;48.756;9.226;2023-06-10T12:08:43;29.20;99.90
18426;DHT22;9340;48.756;9.226;2023-06-10T12:11:10;29.60;99.90
18426;DHT22;9340;48.756;9.226;2023-06-10T12:13:37;30.00;99.90
18426;DHT22;9340;48.756;9.226;2023-06-10T12:16:12;30.40;99.90
18426;DHT22;9340;48.756;9.226;2023-06-10T12:18:39;30.70;99.60
18426;DHT22;9340;48.756;9.226;2023-06-10T12:21:16;30.80;99.90
18426;DHT22;9340;48.756;9.226;2023-06-10T12:24:02;31.00;99.80
18426;DHT22;9340;48.756;9.226;2023-06-10T12:26:37;30.80;98.40
18426;DHT22;9340;48.756;9.226;2023-06-10T12:29:19;30.40;98.90
18426;DHT22;9340;48.756;9.226;2023-06-10T12:31:58;29.90;99.50
18426;DHT22;9340;48.756;9.226;2023-06-10T12:34:33;29.40;99.90
18426;DHT22;9340;48.756;9.226;2023-06-10T12:37:01;29.40;99.90
18426;DHT22;9340;48.756;9.226;2023-06-10T12:39:30;29.50;99.80
18426;DHT22;9340;48.756;9.226;2023-06-10T12:41:57;29.50;99.90
18426;DHT22;9340;48.756;9.226;2023-06-10T12:44:34;29.80;99.90
18426;DHT22;9340;48.756;9.226;2023-06-10T12:47:01;29.90;99.90
18426;DHT22;9340;48.756;9.226;2023-06-10T12:49:28;29.80;99.80
18426;DHT22;9340;48.756;9.226;2023-06-10T12:51:54;29.50;99.90
18426;DHT22;9340;48.756;9.226;2023-06-10T12:54:21;29.00;99.90
18426;DHT22;9340;48.756;9.226;2023-06-10T12:56:50;28.70;99.90
18426;DHT22;9340;48.756;9.226;2023-06-10T12:59:16;28.70;99.90
18426;DHT22;9340;48.756;9.226;2023-06-10T13:01:43;28.90;99.90
18426;DHT22;9340;48.756;9.226;2023-06-10T13:04:10;29.30;99.90
18426;DHT22;9340;48.756;9.226;2023-06-10T13:06:37;29.50;99.70
18426;DHT22;9340;48.756;9.226;2023-06-10T13:09:06;29.20;99.90
18426;DHT22;9340;48.756;9.226;2023-06-10T13:11:33;29.30;99.90
18426;DHT22;9340;48.756;9.226;2023-06-10T13:14:02;29.40;99.90
18426;DHT22;9340;48.756;9.226;2023-06-10T13:16:30;29.70;99.60
18426;DHT22;9340;48.756;9.226;2023-06-10T13:18:57;29.90;99.50
18426;DHT22;9340;48.756;9.226;2023-06-10T13:21:28;30.00;99.40
18426;DHT22;9340;48.756;9.226;2023-06-10T13:23:54;29.70;99.90
18426;DHT22;9340;48.756;9.226;2023-06-10T13:26:21;29.40;99.90
18426;DHT22;9340;48.756;9.226;2023-06-10T13:28:47;29.20;99.70
18426;DHT22;9340;48.756;9.226;2023-06-10T13:31:15;28.80;99.60
18426;DHT22;9340;48.756;9.226;2023-06-10T13:33:43;29.00;99.70
18426;DHT22;9340;48.756;9.226;2023-06-10T13:36:10;29.40;99.90
18426;DHT22;9340;48.756;9.226;2023-06-10T13:38:37;29.60;98.40
18426;DHT22;9340;48.756;9.226;2023-06-10T13:41:04;29.40;98.00
18426;DHT22;9340;48.756;9.226;2023-06-10T13:43:31;29.50;98.00
18426;DHT22;9340;48.756;9.226;2023-06-10T13:45:57;29.90;97.80
18426;DHT22;9340;48.756;9.226;2023-06-10T13:48:26;30.00;97.70
18426;DHT22;9340;48.756;9.226;2023-06-10T13:50:52;29.90;98.30
18426;DHT22;9340;48.756;9.226;2023-06-10T13:53:19;29.60;98.40
18426;DHT22;9340;48.756;9.226;2023-06-10T13:55:46;29.40;97.30
18426;DHT22;9340;48.756;9.226;2023-06-10T13:58:13;29.20;97.40
18426;DHT22;9340;48.756;9.226;2023-06-10T14:00:39;29.20;98.90
18426;DHT22;9340;48.756;9.226;2023-06-10T14:03:06;29.50;97.60
18426;DHT22;9340;48.756;9.226;2023-06-10T14:05:34;30.00;97.70
18426;DHT22;9340;48.756;9.226;2023-06-10T14:08:01;30.40;96.60
18426;DHT22;9340;48.756;9.226;2023-06-10T14:10:28;30.70;97.30
18426;DHT22;9340;48.756;9.226;2023-06-10T14:12:54;30.80;96.60
18426;DHT22;9340;48.756;9.226;2023-06-10T14:15:21;30.80;97.40
18426;DHT22;9340;48.756;9.226;2023-06-10T14:17:48;30.70;97.40
18426;DHT22;9340;48.756;9.226;2023-06-10T14:20:14;30.40;97.70
18426;DHT22;9340;48.756;9.226;2023-06-10T14:22:42;30.10;97.30
18426;DHT22;9340;48.756;9.226;2023-06-10T14:25:09;29.70;97.80
18426;DHT22;9340;48.756;9.226;2023-06-10T14:27:36;29.40;98.00
18426;DHT22;9340;48.756;9.226;2023-06-10T14:30:03;29.40;98.60
18426;DHT22;9340;48.756;9.226;2023-06-10T14:32:31;29.40;98.80
18426;DHT22;9340;48.756;9.226;2023-06-10T14:34:57;29.70;98.70
18426;DHT22;9340;48.756;9.226;2023-06-10T14:37:24;29.80;97.60
18426;DHT22;9340;48.756;9.226;2023-06-10T14:39:52;29.80;97.70
18426;DHT22;9340;48.756;9.226;2023-06-10T14:42:18;30.00;97.20
18426;DHT22;9340;48.756;9.226;2023-06-10T14:44:45;30.20;97.40
18426;DHT22;9340;48.756;9.226;2023-06-10T14:47:12;30.00;97.40
18426;DHT22;9340;48.756;9.226;2023-06-10T14:49:38;30.00;97.20
18426;DHT22;9340;48.756;9.226;2023-06-10T14:52:07;30.00;97.20
18426;DHT22;9340;48.756;9.226;2023-06-10T14:54:34;29.80;97.40
18426;DHT22;9340;48.756;9.226;2023-06-10T14:57:02;29.60;98.00
18426;DHT22;9340;48.756;9.226;2023-06-10T14:59:29;29.50;97.90
18426;DHT22;9340;48.756;9.226;2023-06-10T15:01:55;29.40;98.40
18426;DHT22;9340;48.756;9.226;2023-06-10T15:04:22;29.30;98.40
18426;DHT22;9340;48.756;9.226;2023-06-10T15:06:49;29.10;98.00
18426;DHT22;9340;48.756;9.226;2023-06-10T15:09:16;29.00;98.50
18426;DHT22;9340;48.756;9.226;2023-06-10T15:11:43;28.90;97.90
18426;DHT22;9340;48.756;9.226;2023-06-10T15:14:11;28.90;98.30
18426;DHT22;9340;48.756;9.226;2023-06-10T15:16:37;28.80;98.20
18426;DHT22;9340;48.756;9.226;2023-06-10T15:19:04;28.80;99.30
18426;DHT22;9340;48.756;9.226;2023-06-10T15:21:33;29.00;98.80
18426;DHT22;9340;48.756;9.226;2023-06-10T15:24:00;29.10;98.50
18426;DHT22;9340;48.756;9.226;2023-06-10T15:26:27;29.20;98.40
18426;DHT22;9340;48.756;9.226;2023-06-10T15:28:54;29.30;98.70
18426;DHT22;9340;48.756;9.226;2023-06-10T15:31:22;29.40;98.20
18426;DHT22;9340;48.756;9.226;2023-06-10T15:33:48;29.60;98.00
18426;DHT22;9340;48.756;9.226;2023-06-10T15:36:15;29.70;97.60
18426;DHT22;9340;48.756;9.226;2023-06-10T15:38:41;29.70;98.10
18426;DHT22;9340;48.756;9.226;2023-06-10T15:41:08;29.80;98.30
18426;DHT22;9340;48.756;9.226;2023-06-10T15:43:35;29.90;98.60
18426;DHT22;9340;48.756;9.226;2023-06-10T15:46:01;29.90;97.90
18426;DHT22;9340;48.756;9.226;2023-06-10T15:48:29;29.90;97.50
18426;DHT22;9340;48.756;9.226;2023-06-10T15:50:56;29.70;97.80